sensor_id;sensor_type;location;lat;lon;timestamp;P1;durP1;ratioP1;P2;durP2;ratioP2
8102;SDS011;4094;49.948;11.574;2022-09-01T00:00:02;7.10;;;3.97;;
8102;SDS011;4094;49.948;11.574;2022-09-01T00:02:34;5.13;;;3.83;;
8102;SDS011;4094;49.948;11.574;2022-09-01T00:05:05;5.17;;;4.10;;
8102;SDS011;4094;49.948;11.574;2022-09-01T00:07:36;6.20;;;4.50;;
8102;SDS011;4094;49.948;11.574;2022-09-01T00:10:06;5.77;;;3.83;;
8102;SDS011;4094;49.948;11.574;2022-09-01T00:12:36;7.03;;;3.80;;
8102;SDS011;4094;49.948;11.574;2022-09-01T00:15:07;6.90;;;3.43;;
8102;SDS011;4094;49.948;11.574;2022-09-01T00:17:37;6.90;;;4.10;;
8102;SDS011;4094;49.948;11.574;2022-09-01T00:20:08;5.30;;;4.00;;
8102;SDS011;4094;49.948;11.574;2022-09-01T00:22:37;7.67;;;4.33;;
8102;SDS011;4094;49.948;11.574;2022-09-01T00:25:06;6.03;;;3.97;;
8102;SDS011;4094;49.948;11.574;2022-09-01T00:27:36;9.00;;;4.43;;
8102;SDS011;4094;49.948;11.574;2022-09-01T00:30:06;10.17;;;4.27;;
8102;SDS011;4094;49.948;11.574;2022-09-01T00:32:36;6.23;;;4.17;;
8102;SDS011;4094;49.948;11.574;2022-09-01T00:35:05;5.03;;;4.10;;
8102;SDS011;4094;49.948;11.574;2022-09-01T00:37:37;5.33;;;3.83;;
8102;SDS011;4094;49.948;11.574;2022-09-01T00:40:06;5.40;;;4.10;;
8102;SDS011;4094;49.948;11.574;2022-09-01T00:42:38;4.27;;;3.97;;
8102;SDS011;4094;49.948;11.574;2022-09-01T00:45:08;5.60;;;4.27;;
8102;SDS011;4094;49.948;11.574;2022-09-01T00:47:38;4.33;;;3.97;;
8102;SDS011;4094;49.948;11.574;2022-09-01T00:50:08;5.77;;;3.77;;
8102;SDS011;4094;49.948;11.574;2022-09-01T00:52:41;4.20;;;3.90;;
8102;SDS011;4094;49.948;11.574;2022-09-01T00:55:15;6.37;;;3.97;;
8102;SDS011;4094;49.948;11.574;2022-09-01T00:57:48;4.53;;;4.13;;
8102;SDS011;4094;49.948;11.574;2022-09-01T01:00:19;4.20;;;3.83;;
8102;SDS011;4094;49.948;11.574;2022-09-01T01:02:50;5.50;;;4.00;;
8102;SDS011;4094;49.948;11.574;2022-09-01T01:05:22;4.10;;;3.70;;
8102;SDS011;4094;49.948;11.574;2022-09-01T01:07:55;4.63;;;3.90;;
8102;SDS011;4094;49.948;11.574;2022-09-01T01:10:25;4.10;;;3.80;;
8102;SDS011;4094;49.948;11.574;2022-09-01T01:12:59;5.70;;;4.20;;
8102;SDS011;4094;49.948;11.574;2022-09-01T01:15:31;4.53;;;4.00;;
8102;SDS011;4094;49.948;11.574;2022-09-01T01:17:59;4.10;;;3.60;;
8102;SDS011;4094;49.948;11.574;2022-09-01T01:20:29;4.10;;;3.70;;
8102;SDS011;4094;49.948;11.574;2022-09-01T01:23:20;4.57;;;4.00;;
8102;SDS011;4094;49.948;11.574;2022-09-01T01:25:55;4.30;;;4.03;;
8102;SDS011;4094;49.948;11.574;2022-09-01T01:28:28;4.67;;;4.37;;
8102;SDS011;4094;49.948;11.574;2022-09-01T01:31:01;3.90;;;3.50;;
8102;SDS011;4094;49.948;11.574;2022-09-01T01:33:33;3.93;;;3.70;;
8102;SDS011;4094;49.948;11.574;2022-09-01T01:36:10;4.23;;;3.80;;
8102;SDS011;4094;49.948;11.574;2022-09-01T01:38:43;4.73;;;4.33;;
8102;SDS011;4094;49.948;11.574;2022-09-01T01:41:16;4.03;;;3.83;;
8102;SDS011;4094;49.948;11.574;2022-09-01T01:43:48;4.37;;;4.07;;
8102;SDS011;4094;49.948;11.574;2022-09-01T01:46:19;4.30;;;4.00;;
8102;SDS011;4094;49.948;11.574;2022-09-01T01:48:49;5.10;;;4.13;;
8102;SDS011;4094;49.948;11.574;2022-09-01T01:51:20;4.60;;;4.30;;
8102;SDS011;4094;49.948;11.574;2022-09-01T01:53:53;4.40;;;4.00;;
8102;SDS011;4094;49.948;11.574;2022-09-01T01:56:24;4.80;;;4.23;;
8102;SDS011;4094;49.948;11.574;2022-09-01T01:58:55;4.93;;;4.53;;
8102;SDS011;4094;49.948;11.574;2022-09-01T02:01:26;4.60;;;4.30;;
8102;SDS011;4094;49.948;11.574;2022-09-01T02:03:59;4.33;;;4.03;;
8102;SDS011;4094;49.948;11.574;2022-09-01T02:06:31;4.47;;;4.17;;
8102;SDS011;4094;49.948;11.574;2022-09-01T02:09:02;4.43;;;4.03;;
8102;SDS011;4094;49.948;11.574;2022-09-01T02:11:33;4.50;;;4.20;;
8102;SDS011;4094;49.948;11.574;2022-09-01T02:14:05;4.70;;;4.40;;
8102;SDS011;4094;49.948;11.574;2022-09-01T02:16:35;5.77;;;4.20;;
8102;SDS011;4094;49.948;11.574;2022-09-01T02:19:05;4.60;;;4.30;;
8102;SDS011;4094;49.948;11.574;2022-09-01T02:21:37;4.63;;;4.33;;
8102;SDS011;4094;49.948;11.574;2022-09-01T02:24:10;4.73;;;4.33;;
8102;SDS011;4094;49.948;11.574;2022-09-01T02:26:42;4.83;;;4.13;;
8102;SDS011;4094;49.948;11.574;2022-09-01T02:29:12;4.70;;;4.30;;
8102;SDS011;4094;49.948;11.574;2022-09-01T02:31:49;4.43;;;4.10;;
8102;SDS011;4094;49.948;11.574;2022-09-01T02:34:20;5.83;;;4.37;;
8102;SDS011;4094;49.948;11.574;2022-09-01T02:36:53;4.87;;;4.47;;
8102;SDS011;4094;49.948;11.574;2022-09-01T02:39:25;4.37;;;4.17;;
8102;SDS011;4094;49.948;11.574;2022-09-01T02:41:56;4.43;;;4.03;;
8102;SDS011;4094;49.948;11.574;2022-09-01T02:44:28;4.50;;;4.20;;
8102;SDS011;4094;49.948;11.574;2022-09-01T02:46:59;4.90;;;4.60;;
8102;SDS011;4094;49.948;11.574;2022-09-01T02:49:32;4.50;;;4.20;;
8102;SDS011;4094;49.948;11.574;2022-09-01T02:52:02;4.67;;;4.30;;
8102;SDS011;4094;49.948;11.574;2022-09-01T02:54:33;4.83;;;4.43;;
8102;SDS011;4094;49.948;11.574;2022-09-01T02:57:04;4.90;;;4.53;;
8102;SDS011;4094;49.948;11.574;2022-09-01T02:59:35;4.70;;;4.30;;
8102;SDS011;4094;49.948;11.574;2022-09-01T03:02:09;4.77;;;4.43;;
8102;SDS011;4094;49.948;11.574;2022-09-01T03:04:38;5.13;;;4.77;;
8102;SDS011;4094;49.948;11.574;2022-09-01T03:07:08;5.33;;;4.60;;
8102;SDS011;4094;49.948;11.574;2022-09-01T03:09:36;4.70;;;4.40;;
8102;SDS011;4094;49.948;11.574;2022-09-01T03:12:08;5.10;;;4.70;;
8102;SDS011;4094;49.948;11.574;2022-09-01T03:14:37;5.20;;;4.80;;
8102;SDS011;4094;49.948;11.574;2022-09-01T03:17:06;5.23;;;4.73;;
8102;SDS011;4094;49.948;11.574;2022-09-01T03:19:35;4.90;;;4.50;;
8102;SDS011;4094;49.948;11.574;2022-09-01T03:22:11;4.57;;;4.17;;
8102;SDS011;4094;49.948;11.574;2022-09-01T03:24:40;4.97;;;4.67;;
8102;SDS011;4094;49.948;11.574;2022-09-01T03:27:11;4.50;;;4.20;;
8102;SDS011;4094;49.948;11.574;2022-09-01T03:29:40;4.70;;;4.27;;
8102;SDS011;4094;49.948;11.574;2022-09-01T03:32:09;4.93;;;4.63;;
8102;SDS011;4094;49.948;11.574;2022-09-01T03:34:39;4.90;;;4.57;;
8102;SDS011;4094;49.948;11.574;2022-09-01T03:37:08;4.47;;;4.17;;
8102;SDS011;4094;49.948;11.574;2022-09-01T03:39:38;4.77;;;4.30;;
8102;SDS011;4094;49.948;11.574;2022-09-01T03:42:07;4.80;;;4.50;;
8102;SDS011;4094;49.948;11.574;2022-09-01T03:44:40;5.20;;;4.80;;
8102;SDS011;4094;49.948;11.574;2022-09-01T03:47:14;5.40;;;4.90;;
8102;SDS011;4094;49.948;11.574;2022-09-01T03:49:43;5.20;;;4.83;;
8102;SDS011;4094;49.948;11.574;2022-09-01T03:52:15;5.23;;;4.83;;
8102;SDS011;4094;49.948;11.574;2022-09-01T03:54:45;4.67;;;4.37;;
8102;SDS011;4094;49.948;11.574;2022-09-01T03:57:19;4.80;;;4.50;;
8102;SDS011;4094;49.948;11.574;2022-09-01T03:59:51;5.03;;;4.73;;
8102;SDS011;4094;49.948;11.574;2022-09-01T04:02:22;5.23;;;4.83;;
8102;SDS011;4094;49.948;11.574;2022-09-01T04:04:56;5.20;;;4.80;;
8102;SDS011;4094;49.948;11.574;2022-09-01T04:07:31;5.27;;;4.77;;
8102;SDS011;4094;49.948;11.574;2022-09-01T04:10:00;5.43;;;5.03;;
8102;SDS011;4094;49.948;11.574;2022-09-01T04:12:29;5.37;;;4.97;;
8102;SDS011;4094;49.948;11.574;2022-09-01T04:15:00;5.83;;;5.13;;
8102;SDS011;4094;49.948;11.574;2022-09-01T04:17:30;4.57;;;4.27;;
8102;SDS011;4094;49.948;11.574;2022-09-01T04:20:16;5.30;;;4.90;;
8102;SDS011;4094;49.948;11.574;2022-09-01T04:22:47;5.53;;;5.03;;
8102;SDS011;4094;49.948;11.574;2022-09-01T04:25:19;5.07;;;4.60;;
8102;SDS011;4094;49.948;11.574;2022-09-01T04:27:53;5.27;;;4.77;;
8102;SDS011;4094;49.948;11.574;2022-09-01T04:30:25;4.97;;;4.67;;
8102;SDS011;4094;49.948;11.574;2022-09-01T04:32:59;6.67;;;5.43;;
8102;SDS011;4094;49.948;11.574;2022-09-01T04:35:28;4.70;;;4.40;;
8102;SDS011;4094;49.948;11.574;2022-09-01T04:38:04;5.17;;;4.80;;
8102;SDS011;4094;49.948;11.574;2022-09-01T04:40:36;5.83;;;5.40;;
8102;SDS011;4094;49.948;11.574;2022-09-01T04:43:07;5.47;;;4.97;;
8102;SDS011;4094;49.948;11.574;2022-09-01T04:45:38;5.20;;;4.57;;
8102;SDS011;4094;49.948;11.574;2022-09-01T04:48:09;5.40;;;5.00;;
8102;SDS011;4094;49.948;11.574;2022-09-01T04:50:38;6.00;;;5.47;;
8102;SDS011;4094;49.948;11.574;2022-09-01T04:53:17;5.17;;;4.77;;
8102;SDS011;4094;49.948;11.574;2022-09-01T04:55:49;5.40;;;5.00;;
8102;SDS011;4094;49.948;11.574;2022-09-01T04:58:20;6.10;;;5.33;;
8102;SDS011;4094;49.948;11.574;2022-09-01T05:00:51;5.60;;;5.17;;
8102;SDS011;4094;49.948;11.574;2022-09-01T05:03:22;5.83;;;5.43;;
8102;SDS011;4094;49.948;11.574;2022-09-01T05:06:11;5.63;;;5.13;;
8102;SDS011;4094;49.948;11.574;2022-09-01T05:08:46;5.23;;;4.83;;
8102;SDS011;4094;49.948;11.574;2022-09-01T05:11:32;6.40;;;5.67;;
8102;SDS011;4094;49.948;11.574;2022-09-01T05:14:09;5.57;;;5.07;;
8102;SDS011;4094;49.948;11.574;2022-09-01T05:16:40;7.93;;;5.20;;
8102;SDS011;4094;49.948;11.574;2022-09-01T05:19:11;5.77;;;5.27;;
8102;SDS011;4094;49.948;11.574;2022-09-01T05:21:41;5.73;;;5.27;;
8102;SDS011;4094;49.948;11.574;2022-09-01T05:24:12;7.53;;;5.60;;
8102;SDS011;4094;49.948;11.574;2022-09-01T05:26:45;6.10;;;5.60;;
8102;SDS011;4094;49.948;11.574;2022-09-01T05:29:16;6.80;;;5.90;;
8102;SDS011;4094;49.948;11.574;2022-09-01T05:31:48;6.23;;;5.73;;
8102;SDS011;4094;49.948;11.574;2022-09-01T05:34:19;6.30;;;5.80;;
8102;SDS011;4094;49.948;11.574;2022-09-01T05:36:54;5.97;;;5.43;;
8102;SDS011;4094;49.948;11.574;2022-09-01T05:39:25;6.87;;;6.13;;
8102;SDS011;4094;49.948;11.574;2022-09-01T05:41:54;6.57;;;6.07;;
8102;SDS011;4094;49.948;11.574;2022-09-01T05:44:25;6.30;;;5.80;;
8102;SDS011;4094;49.948;11.574;2022-09-01T05:46:58;7.00;;;6.30;;
8102;SDS011;4094;49.948;11.574;2022-09-01T05:49:29;6.87;;;6.27;;
8102;SDS011;4094;49.948;11.574;2022-09-01T05:52:02;6.83;;;6.30;;
8102;SDS011;4094;49.948;11.574;2022-09-01T05:54:32;8.57;;;6.53;;
8102;SDS011;4094;49.948;11.574;2022-09-01T05:57:02;7.80;;;7.10;;
8102;SDS011;4094;49.948;11.574;2022-09-01T05:59:54;6.97;;;6.37;;
8102;SDS011;4094;49.948;11.574;2022-09-01T06:02:26;7.37;;;6.60;;
8102;SDS011;4094;49.948;11.574;2022-09-01T06:04:58;7.30;;;6.70;;
8102;SDS011;4094;49.948;11.574;2022-09-01T06:07:31;7.00;;;6.30;;
8102;SDS011;4094;49.948;11.574;2022-09-01T06:10:05;6.77;;;6.17;;
8102;SDS011;4094;49.948;11.574;2022-09-01T06:12:35;6.60;;;6.00;;
8102;SDS011;4094;49.948;11.574;2022-09-01T06:15:07;7.33;;;6.13;;
8102;SDS011;4094;49.948;11.574;2022-09-01T06:17:47;6.53;;;6.03;;
8102;SDS011;4094;49.948;11.574;2022-09-01T06:20:17;6.00;;;5.50;;
8102;SDS011;4094;49.948;11.574;2022-09-01T06:22:46;5.60;;;5.10;;
8102;SDS011;4094;49.948;11.574;2022-09-01T06:25:16;5.43;;;4.97;;
8102;SDS011;4094;49.948;11.574;2022-09-01T06:27:47;6.03;;;5.53;;
8102;SDS011;4094;49.948;11.574;2022-09-01T06:30:19;6.00;;;5.40;;
8102;SDS011;4094;49.948;11.574;2022-09-01T06:33:02;7.97;;;5.10;;
8102;SDS011;4094;49.948;11.574;2022-09-01T06:35:35;5.87;;;5.07;;
8102;SDS011;4094;49.948;11.574;2022-09-01T06:38:05;6.77;;;5.23;;
8102;SDS011;4094;49.948;11.574;2022-09-01T06:40:39;6.00;;;4.97;;
8102;SDS011;4094;49.948;11.574;2022-09-01T06:43:11;5.87;;;5.27;;
8102;SDS011;4094;49.948;11.574;2022-09-01T06:45:47;5.63;;;5.07;;
8102;SDS011;4094;49.948;11.574;2022-09-01T06:48:24;4.90;;;4.50;;
8102;SDS011;4094;49.948;11.574;2022-09-01T06:50:59;7.07;;;4.63;;
8102;SDS011;4094;49.948;11.574;2022-09-01T06:53:53;5.53;;;4.40;;
8102;SDS011;4094;49.948;11.574;2022-09-01T06:56:30;5.77;;;4.80;;
8102;SDS011;4094;49.948;11.574;2022-09-01T06:59:11;6.67;;;4.93;;
8102;SDS011;4094;49.948;11.574;2022-09-01T07:01:45;5.00;;;4.50;;
8102;SDS011;4094;49.948;11.574;2022-09-01T07:04:19;7.30;;;4.73;;
8102;SDS011;4094;49.948;11.574;2022-09-01T07:06:56;4.70;;;4.17;;
8102;SDS011;4094;49.948;11.574;2022-09-01T07:09:46;6.87;;;4.50;;
8102;SDS011;4094;49.948;11.574;2022-09-01T07:12:39;8.27;;;4.40;;
8102;SDS011;4094;49.948;11.574;2022-09-01T07:15:32;5.00;;;4.20;;
8102;SDS011;4094;49.948;11.574;2022-09-01T07:18:23;8.90;;;4.30;;
8102;SDS011;4094;49.948;11.574;2022-09-01T07:20:55;6.27;;;4.40;;
8102;SDS011;4094;49.948;11.574;2022-09-01T07:23:46;3.90;;;3.60;;
8102;SDS011;4094;49.948;11.574;2022-09-01T07:26:35;4.23;;;3.60;;
8102;SDS011;4094;49.948;11.574;2022-09-01T07:29:14;6.43;;;4.17;;
8102;SDS011;4094;49.948;11.574;2022-09-01T07:31:49;4.10;;;3.80;;
8102;SDS011;4094;49.948;11.574;2022-09-01T07:34:41;4.60;;;3.73;;
8102;SDS011;4094;49.948;11.574;2022-09-01T07:37:17;5.57;;;3.70;;
8102;SDS011;4094;49.948;11.574;2022-09-01T07:40:11;3.80;;;3.30;;
8102;SDS011;4094;49.948;11.574;2022-09-01T07:43:13;5.67;;;4.23;;
8102;SDS011;4094;49.948;11.574;2022-09-01T07:46:25;4.93;;;3.57;;
8102;SDS011;4094;49.948;11.574;2022-09-01T07:49:17;3.20;;;2.90;;
8102;SDS011;4094;49.948;11.574;2022-09-01T07:52:07;4.43;;;3.07;;
8102;SDS011;4094;49.948;11.574;2022-09-01T07:54:38;4.00;;;3.20;;
8102;SDS011;4094;49.948;11.574;2022-09-01T07:57:08;3.53;;;3.00;;
8102;SDS011;4094;49.948;11.574;2022-09-01T07:59:38;3.40;;;3.10;;
8102;SDS011;4094;49.948;11.574;2022-09-01T08:02:16;4.40;;;3.13;;
8102;SDS011;4094;49.948;11.574;2022-09-01T08:04:49;3.60;;;2.90;;
8102;SDS011;4094;49.948;11.574;2022-09-01T08:07:19;3.27;;;2.80;;
8102;SDS011;4094;49.948;11.574;2022-09-01T08:09:51;3.33;;;3.03;;
8102;SDS011;4094;49.948;11.574;2022-09-01T08:12:28;3.03;;;2.73;;
8102;SDS011;4094;49.948;11.574;2022-09-01T08:14:57;3.07;;;2.77;;
8102;SDS011;4094;49.948;11.574;2022-09-01T08:17:46;3.67;;;3.07;;
8102;SDS011;4094;49.948;11.574;2022-09-01T08:20:20;3.17;;;2.87;;
8102;SDS011;4094;49.948;11.574;2022-09-01T08:23:13;2.87;;;2.67;;
8102;SDS011;4094;49.948;11.574;2022-09-01T08:25:48;4.03;;;2.80;;
8102;SDS011;4094;49.948;11.574;2022-09-01T08:28:18;5.17;;;3.37;;
8102;SDS011;4094;49.948;11.574;2022-09-01T08:30:56;3.30;;;2.80;;
8102;SDS011;4094;49.948;11.574;2022-09-01T08:33:27;3.30;;;3.00;;
8102;SDS011;4094;49.948;11.574;2022-09-01T08:36:00;2.80;;;2.60;;
8102;SDS011;4094;49.948;11.574;2022-09-01T08:38:30;3.20;;;2.90;;
8102;SDS011;4094;49.948;11.574;2022-09-01T08:41:00;4.80;;;2.70;;
8102;SDS011;4094;49.948;11.574;2022-09-01T08:43:42;3.00;;;2.70;;
8102;SDS011;4094;49.948;11.574;2022-09-01T08:46:19;2.77;;;2.57;;
8102;SDS011;4094;49.948;11.574;2022-09-01T08:48:54;3.13;;;2.67;;
8102;SDS011;4094;49.948;11.574;2022-09-01T08:52:06;2.80;;;2.50;;
8102;SDS011;4094;49.948;11.574;2022-09-01T08:54:46;2.93;;;2.73;;
8102;SDS011;4094;49.948;11.574;2022-09-01T08:57:20;3.47;;;2.80;;
8102;SDS011;4094;49.948;11.574;2022-09-01T09:00:24;3.50;;;3.00;;
8102;SDS011;4094;49.948;11.574;2022-09-01T09:03:03;2.73;;;2.53;;
8102;SDS011;4094;49.948;11.574;2022-09-01T09:05:42;3.27;;;2.97;;
8102;SDS011;4094;49.948;11.574;2022-09-01T09:08:32;2.80;;;2.60;;
8102;SDS011;4094;49.948;11.574;2022-09-01T09:11:22;4.53;;;2.63;;
8102;SDS011;4094;49.948;11.574;2022-09-01T09:14:16;3.07;;;2.80;;
8102;SDS011;4094;49.948;11.574;2022-09-01T09:17:01;3.17;;;2.87;;
8102;SDS011;4094;49.948;11.574;2022-09-01T09:19:32;2.90;;;2.70;;
8102;SDS011;4094;49.948;11.574;2022-09-01T09:22:04;2.90;;;2.70;;
8102;SDS011;4094;49.948;11.574;2022-09-01T09:24:39;3.37;;;3.07;;
8102;SDS011;4094;49.948;11.574;2022-09-01T09:27:21;2.90;;;2.70;;
8102;SDS011;4094;49.948;11.574;2022-09-01T09:29:55;3.63;;;2.60;;
8102;SDS011;4094;49.948;11.574;2022-09-01T09:32:41;2.50;;;2.30;;
8102;SDS011;4094;49.948;11.574;2022-09-01T09:35:34;3.00;;;2.80;;
8102;SDS011;4094;49.948;11.574;2022-09-01T09:38:14;2.60;;;2.40;;
8102;SDS011;4094;49.948;11.574;2022-09-01T09:40:56;2.40;;;2.20;;
8102;SDS011;4094;49.948;11.574;2022-09-01T09:43:47;2.73;;;2.53;;
8102;SDS011;4094;49.948;11.574;2022-09-01T09:46:24;2.80;;;2.60;;
8102;SDS011;4094;49.948;11.574;2022-09-01T09:49:08;3.97;;;2.70;;
8102;SDS011;4094;49.948;11.574;2022-09-01T09:51:41;3.00;;;2.57;;
8102;SDS011;4094;49.948;11.574;2022-09-01T09:54:15;2.93;;;2.60;;
8102;SDS011;4094;49.948;11.574;2022-09-01T09:57:01;2.53;;;2.33;;
8102;SDS011;4094;49.948;11.574;2022-09-01T09:59:34;2.60;;;2.40;;
8102;SDS011;4094;49.948;11.574;2022-09-01T10:02:28;2.83;;;2.60;;
8102;SDS011;4094;49.948;11.574;2022-09-01T10:05:15;2.60;;;2.40;;
8102;SDS011;4094;49.948;11.574;2022-09-01T10:07:53;3.00;;;2.70;;
8102;SDS011;4094;49.948;11.574;2022-09-01T10:10:25;4.00;;;2.43;;
8102;SDS011;4094;49.948;11.574;2022-09-01T10:12:57;4.33;;;2.83;;
8102;SDS011;4094;49.948;11.574;2022-09-01T10:15:29;2.30;;;2.20;;
8102;SDS011;4094;49.948;11.574;2022-09-01T10:18:05;2.40;;;2.20;;
8102;SDS011;4094;49.948;11.574;2022-09-01T10:20:49;2.40;;;2.30;;
8102;SDS011;4094;49.948;11.574;2022-09-01T10:23:22;2.60;;;2.40;;
8102;SDS011;4094;49.948;11.574;2022-09-01T10:25:59;2.50;;;2.40;;
8102;SDS011;4094;49.948;11.574;2022-09-01T10:28:33;2.50;;;2.40;;
8102;SDS011;4094;49.948;11.574;2022-09-01T10:31:16;2.73;;;2.27;;
8102;SDS011;4094;49.948;11.574;2022-09-01T10:33:48;2.50;;;2.30;;
8102;SDS011;4094;49.948;11.574;2022-09-01T10:36:18;2.67;;;2.47;;
8102;SDS011;4094;49.948;11.574;2022-09-01T10:38:51;2.83;;;2.63;;
8102;SDS011;4094;49.948;11.574;2022-09-01T10:41:48;2.47;;;2.27;;
8102;SDS011;4094;49.948;11.574;2022-09-01T10:44:27;2.67;;;2.37;;
8102;SDS011;4094;49.948;11.574;2022-09-01T10:47:00;2.47;;;2.20;;
8102;SDS011;4094;49.948;11.574;2022-09-01T10:52:52;2.63;;;2.43;;
8102;SDS011;4094;49.948;11.574;2022-09-01T10:55:28;3.53;;;2.33;;
8102;SDS011;4094;49.948;11.574;2022-09-01T10:58:20;2.30;;;2.20;;
8102;SDS011;4094;49.948;11.574;2022-09-01T11:05:13;3.07;;;2.40;;
8102;SDS011;4094;49.948;11.574;2022-09-01T11:07:44;2.37;;;2.17;;
8102;SDS011;4094;49.948;11.574;2022-09-01T11:10:38;2.63;;;2.43;;
8102;SDS011;4094;49.948;11.574;2022-09-01T11:13:24;2.53;;;2.03;;
8102;SDS011;4094;49.948;11.574;2022-09-01T11:16:24;2.43;;;2.23;;
8102;SDS011;4094;49.948;11.574;2022-09-01T11:19:25;2.63;;;2.30;;
8102;SDS011;4094;49.948;11.574;2022-09-01T11:22:05;2.23;;;2.13;;
8102;SDS011;4094;49.948;11.574;2022-09-01T11:24:44;2.27;;;2.17;;
8102;SDS011;4094;49.948;11.574;2022-09-01T11:27:57;2.50;;;2.30;;
8102;SDS011;4094;49.948;11.574;2022-09-01T11:30:33;2.40;;;2.20;;
8102;SDS011;4094;49.948;11.574;2022-09-01T11:33:24;2.20;;;2.00;;
8102;SDS011;4094;49.948;11.574;2022-09-01T11:36:03;2.50;;;2.30;;
8102;SDS011;4094;49.948;11.574;2022-09-01T11:38:37;2.30;;;2.10;;
8102;SDS011;4094;49.948;11.574;2022-09-01T11:41:24;2.27;;;2.17;;
8102;SDS011;4094;49.948;11.574;2022-09-01T11:44:06;2.80;;;2.60;;
8102;SDS011;4094;49.948;11.574;2022-09-01T11:46:40;2.47;;;2.30;;
8102;SDS011;4094;49.948;11.574;2022-09-01T11:49:25;2.37;;;2.27;;
8102;SDS011;4094;49.948;11.574;2022-09-01T11:51:56;2.50;;;2.30;;
8102;SDS011;4094;49.948;11.574;2022-09-01T11:54:29;2.60;;;2.40;;
8102;SDS011;4094;49.948;11.574;2022-09-01T11:57:24;2.50;;;2.30;;
8102;SDS011;4094;49.948;11.574;2022-09-01T11:59:57;2.20;;;2.10;;
8102;SDS011;4094;49.948;11.574;2022-09-01T12:02:29;4.97;;;2.17;;
8102;SDS011;4094;49.948;11.574;2022-09-01T12:05:08;2.30;;;2.10;;
8102;SDS011;4094;49.948;11.574;2022-09-01T12:07:53;2.23;;;2.00;;
8102;SDS011;4094;49.948;11.574;2022-09-01T12:10:25;2.43;;;2.03;;
8102;SDS011;4094;49.948;11.574;2022-09-01T12:12:59;3.10;;;2.17;;
8102;SDS011;4094;49.948;11.574;2022-09-01T12:15:31;4.00;;;2.07;;
8102;SDS011;4094;49.948;11.574;2022-09-01T12:18:11;2.20;;;2.00;;
8102;SDS011;4094;49.948;11.574;2022-09-01T12:20:45;3.13;;;2.10;;
8102;SDS011;4094;49.948;11.574;2022-09-01T12:23:17;2.00;;;1.90;;
8102;SDS011;4094;49.948;11.574;2022-09-01T12:25:51;1.97;;;1.80;;
8102;SDS011;4094;49.948;11.574;2022-09-01T12:28:23;2.00;;;1.90;;
8102;SDS011;4094;49.948;11.574;2022-09-01T12:30:58;2.90;;;2.17;;
8102;SDS011;4094;49.948;11.574;2022-09-01T12:33:34;2.10;;;1.90;;
8102;SDS011;4094;49.948;11.574;2022-09-01T12:36:14;2.50;;;2.30;;
8102;SDS011;4094;49.948;11.574;2022-09-01T12:38:51;2.23;;;1.90;;
8102;SDS011;4094;49.948;11.574;2022-09-01T12:41:22;2.10;;;1.80;;
8102;SDS011;4094;49.948;11.574;2022-09-01T12:46:59;2.97;;;2.03;;
8102;SDS011;4094;49.948;11.574;2022-09-01T12:49:34;2.30;;;2.10;;
8102;SDS011;4094;49.948;11.574;2022-09-01T12:52:23;2.57;;;2.03;;
8102;SDS011;4094;49.948;11.574;2022-09-01T12:54:54;2.33;;;1.90;;
8102;SDS011;4094;49.948;11.574;2022-09-01T12:58:01;2.70;;;1.83;;
8102;SDS011;4094;49.948;11.574;2022-09-01T13:00:33;2.63;;;1.97;;
8102;SDS011;4094;49.948;11.574;2022-09-01T13:03:06;1.73;;;1.60;;
8102;SDS011;4094;49.948;11.574;2022-09-01T13:05:40;2.53;;;1.77;;
8102;SDS011;4094;49.948;11.574;2022-09-01T13:08:11;1.90;;;1.50;;
8102;SDS011;4094;49.948;11.574;2022-09-01T13:10:43;2.10;;;1.90;;
8102;SDS011;4094;49.948;11.574;2022-09-01T13:13:14;2.00;;;1.80;;
8102;SDS011;4094;49.948;11.574;2022-09-01T13:15:45;1.53;;;1.43;;
8102;SDS011;4094;49.948;11.574;2022-09-01T13:18:18;2.03;;;1.90;;
8102;SDS011;4094;49.948;11.574;2022-09-01T13:23:39;1.70;;;1.60;;
8102;SDS011;4094;49.948;11.574;2022-09-01T13:26:10;2.23;;;1.57;;
8102;SDS011;4094;49.948;11.574;2022-09-01T13:28:39;1.83;;;1.60;;
8102;SDS011;4094;49.948;11.574;2022-09-01T13:31:08;1.73;;;1.63;;
8102;SDS011;4094;49.948;11.574;2022-09-01T13:34:01;1.80;;;1.70;;
8102;SDS011;4094;49.948;11.574;2022-09-01T13:36:49;2.03;;;1.83;;
8102;SDS011;4094;49.948;11.574;2022-09-01T13:39:19;3.07;;;1.90;;
8102;SDS011;4094;49.948;11.574;2022-09-01T13:41:49;1.87;;;1.77;;
8102;SDS011;4094;49.948;11.574;2022-09-01T13:44:19;1.87;;;1.73;;
8102;SDS011;4094;49.948;11.574;2022-09-01T13:46:48;2.20;;;2.00;;
8102;SDS011;4094;49.948;11.574;2022-09-01T13:49:38;2.20;;;2.00;;
8102;SDS011;4094;49.948;11.574;2022-09-01T13:52:27;2.47;;;1.90;;
8102;SDS011;4094;49.948;11.574;2022-09-01T13:54:56;2.00;;;1.80;;
8102;SDS011;4094;49.948;11.574;2022-09-01T13:57:25;2.83;;;1.90;;
8102;SDS011;4094;49.948;11.574;2022-09-01T14:00:02;1.93;;;1.80;;
8102;SDS011;4094;49.948;11.574;2022-09-01T14:02:36;1.73;;;1.63;;
8102;SDS011;4094;49.948;11.574;2022-09-01T14:05:09;2.40;;;1.93;;
8102;SDS011;4094;49.948;11.574;2022-09-01T14:07:38;2.13;;;1.77;;
8102;SDS011;4094;49.948;11.574;2022-09-01T14:10:08;1.90;;;1.80;;
8102;SDS011;4094;49.948;11.574;2022-09-01T14:12:37;1.80;;;1.70;;
8102;SDS011;4094;49.948;11.574;2022-09-01T14:15:08;2.00;;;1.70;;
8102;SDS011;4094;49.948;11.574;2022-09-01T14:17:43;1.70;;;1.60;;
8102;SDS011;4094;49.948;11.574;2022-09-01T14:20:16;1.80;;;1.70;;
8102;SDS011;4094;49.948;11.574;2022-09-01T14:22:46;2.10;;;1.90;;
8102;SDS011;4094;49.948;11.574;2022-09-01T14:25:16;2.43;;;1.97;;
8102;SDS011;4094;49.948;11.574;2022-09-01T14:27:47;2.47;;;1.77;;
8102;SDS011;4094;49.948;11.574;2022-09-01T14:30:18;2.37;;;2.00;;
8102;SDS011;4094;49.948;11.574;2022-09-01T14:32:52;2.30;;;2.10;;
8102;SDS011;4094;49.948;11.574;2022-09-01T14:35:22;2.33;;;2.10;;
8102;SDS011;4094;49.948;11.574;2022-09-01T14:37:53;2.63;;;1.73;;
8102;SDS011;4094;49.948;11.574;2022-09-01T14:40:23;2.60;;;2.00;;
8102;SDS011;4094;49.948;11.574;2022-09-01T14:42:52;2.70;;;1.80;;
8102;SDS011;4094;49.948;11.574;2022-09-01T14:45:22;2.20;;;2.00;;
8102;SDS011;4094;49.948;11.574;2022-09-01T14:47:53;1.93;;;1.83;;
8102;SDS011;4094;49.948;11.574;2022-09-01T14:50:28;2.00;;;1.90;;
8102;SDS011;4094;49.948;11.574;2022-09-01T14:53:00;1.90;;;1.80;;
8102;SDS011;4094;49.948;11.574;2022-09-01T14:55:30;2.10;;;1.90;;
8102;SDS011;4094;49.948;11.574;2022-09-01T14:57:59;2.20;;;2.00;;
8102;SDS011;4094;49.948;11.574;2022-09-01T15:00:29;3.57;;;2.10;;
8102;SDS011;4094;49.948;11.574;2022-09-01T15:03:00;2.03;;;1.93;;
8102;SDS011;4094;49.948;11.574;2022-09-01T15:05:30;2.23;;;1.83;;
8102;SDS011;4094;49.948;11.574;2022-09-01T15:08:06;1.87;;;1.77;;
8102;SDS011;4094;49.948;11.574;2022-09-01T15:10:43;2.10;;;1.90;;
8102;SDS011;4094;49.948;11.574;2022-09-01T15:13:13;2.17;;;1.97;;
8102;SDS011;4094;49.948;11.574;2022-09-01T15:15:42;2.67;;;1.90;;
8102;SDS011;4094;49.948;11.574;2022-09-01T15:18:11;2.03;;;1.93;;
8102;SDS011;4094;49.948;11.574;2022-09-01T15:20:41;3.17;;;2.17;;
8102;SDS011;4094;49.948;11.574;2022-09-01T15:23:13;1.90;;;1.80;;
8102;SDS011;4094;49.948;11.574;2022-09-01T15:25:45;2.23;;;1.87;;
8102;SDS011;4094;49.948;11.574;2022-09-01T15:28:14;1.90;;;1.80;;
8102;SDS011;4094;49.948;11.574;2022-09-01T15:30:44;2.20;;;1.80;;
8102;SDS011;4094;49.948;11.574;2022-09-01T15:33:14;2.47;;;2.00;;
8102;SDS011;4094;49.948;11.574;2022-09-01T15:35:45;2.30;;;2.00;;
8102;SDS011;4094;49.948;11.574;2022-09-01T15:38:14;2.50;;;2.30;;
8102;SDS011;4094;49.948;11.574;2022-09-01T15:40:45;3.20;;;2.00;;
8102;SDS011;4094;49.948;11.574;2022-09-01T15:43:26;1.90;;;1.80;;
8102;SDS011;4094;49.948;11.574;2022-09-01T15:45:56;3.37;;;2.20;;
8102;SDS011;4094;49.948;11.574;2022-09-01T15:48:26;2.17;;;2.00;;
8102;SDS011;4094;49.948;11.574;2022-09-01T15:51:00;1.80;;;1.70;;
8102;SDS011;4094;49.948;11.574;2022-09-01T15:53:54;3.00;;;2.20;;
8102;SDS011;4094;49.948;11.574;2022-09-01T15:56:24;2.00;;;1.90;;
8102;SDS011;4094;49.948;11.574;2022-09-01T15:58:53;2.37;;;1.90;;
8102;SDS011;4094;49.948;11.574;2022-09-01T16:01:29;3.23;;;2.10;;